Pattaya, Thailand

12:27 AM ICT on August 27, 2016 (GMT +0700)
Royal Varuna Yacht Club | | Change Station

Elev 30 ft 12.92 °N, 100.86 °E | Updated 3 seconds ago

Scattered Clouds
Scattered Clouds
85.5 °F
Feels Like 100 °F
N
18.4
Wind Variable Wind from SSW
Gusts 18.4 mph

Today
High -- | Low -- °F
--% Chance of Precip.
Yesterday
High -- | Low -- °F
Precip. -- in
Pressure 29.80 in
Visibility 3.7 miles
Clouds Few 2000 ft
Scattered Clouds 4000 ft
Heat Index 100 °F
Dew Point 80 °F
Humidity 84%
Rainfall 0.00 in
Snow Depth Not available.
6:05 AM 6:30 PM
Waning Crescent, 33% visible
METAR VTBU 261700Z 22006KT 6000 FEW020 SCT040 29/24 Q1009 NOSIG
Pressure 29.80 in
Visibility 3.7 miles
Clouds Few 2000 ft
Scattered Clouds 4000 ft
Heat Index 100 °F
Dew Point 80 °F
Humidity 84%
Rainfall 0.00 in
Snow Depth Not available.
6:05 AM 6:30 PM
Waning Crescent, 33% visible
METAR VTBU 261700Z 22006KT 6000 FEW020 SCT040 29/24 Q1009 NOSIG

10-Day Weather Forecast

No radar image for this location.
×

Almanac

Astronomy

Aug. 27, 2016 Rise Set
Actual Time
Civil Twilight
Nautical Twilight
Astronomical Twilight
Moon
Length of Visible Light
Length of Day
Tomorrow will be .
, % of the Moon is Illuminated

Today's Extremes

Country Highs Country Lows

Community

WunderPhotos

Upload Photos

1,935,145 photos uploaded!

WunderBlog® & News

Nearby

Air Quality

  Air Quality AQ Index Pollutant
Not available.

Snow Depth

Station Depth Elevation

Earthquake Activity

City Distance Mag. Time & Date
Minimum magnitude displayed is 2.5.

Coastal Water Temperatures

Place Temperature

Stations

Nearby Weather Stations

Station Location Temp. Windchill Dew Point Humidity Wind Precip. Elev Updated Type